createdAt,value
2019-05-29T00:00:10.157Z,1000.50
2019-05-29T00:01:16.109Z,1000.62
2019-05-29T00:02:10.757Z,1000.66
2019-05-29T00:03:10.477Z,1000.70
2019-05-29T00:04:10.244Z,1000.63
2019-05-29T00:05:10.129Z,1000.60
2019-05-29T00:06:10.197Z,1000.72
2019-05-29T00:07:10.143Z,1000.77
2019-05-29T00:08:10.382Z,1000.75
2019-05-29T00:09:10.071Z,1000.66
2019-05-29T00:10:10.520Z,1000.68
2019-05-29T00:11:10.161Z,1000.69
2019-05-29T00:12:13.812Z,1000.75
2019-05-29T00:13:10.669Z,1000.77
2019-05-29T00:14:24.955Z,1000.83
2019-05-29T00:15:10.617Z,1000.81
2019-05-29T00:16:10.358Z,1000.82
2019-05-29T00:17:10.418Z,1000.83
2019-05-29T00:18:10.369Z,1000.82
2019-05-29T00:19:10.372Z,1000.82
2019-05-29T00:20:10.472Z,1000.78
2019-05-29T00:21:11.575Z,1000.85
2019-05-29T00:22:10.290Z,1000.87
2019-05-29T00:23:10.498Z,1000.84
2019-05-29T00:24:10.386Z,1000.90
2019-05-29T00:25:10.585Z,1000.87
2019-05-29T00:26:10.417Z,1000.88
2019-05-29T00:27:12.528Z,1000.91
2019-05-29T00:28:10.540Z,1000.91
2019-05-29T00:29:09.683Z,1000.87
2019-05-29T00:30:10.737Z,1000.98
2019-05-29T00:31:09.905Z,1000.98
2019-05-29T00:32:09.437Z,1000.97
2019-05-29T00:33:10.094Z,1000.94
2019-05-29T00:34:09.447Z,1000.96
2019-05-29T00:35:10.239Z,1000.95
2019-05-29T00:36:10.349Z,1000.97
2019-05-29T00:37:10.481Z,1001.01
2019-05-29T00:38:10.530Z,1000.94
2019-05-29T00:39:10.563Z,1000.93
2019-05-29T00:40:09.359Z,1000.97
2019-05-29T00:41:09.342Z,1000.96
2019-05-29T00:42:09.330Z,1000.97
2019-05-29T00:43:09.326Z,1001.01
2019-05-29T00:44:09.337Z,1001.00
2019-05-29T00:45:09.648Z,1001.00
2019-05-29T00:46:09.384Z,1001.05
2019-05-29T00:47:09.666Z,1001.05
2019-05-29T00:48:09.683Z,1001.07
2019-05-29T00:49:09.721Z,1001.14
2019-05-29T00:50:09.912Z,1001.05
2019-05-29T00:51:09.238Z,1001.16
2019-05-29T00:52:10.023Z,1001.13
2019-05-29T00:53:10.156Z,1001.20
2019-05-29T00:54:10.243Z,1001.12
2019-05-29T00:55:10.406Z,1001.15
2019-05-29T00:56:09.181Z,1001.14
2019-05-29T00:57:09.177Z,1001.10
2019-05-29T00:58:09.183Z,1001.13
2019-05-29T00:59:09.189Z,1001.24
2019-05-29T01:00:09.146Z,1001.27
2019-05-29T01:01:09.354Z,1001.27
2019-05-29T01:02:09.565Z,1001.22
2019-05-29T01:03:09.574Z,1001.32
2019-05-29T01:04:09.604Z,1001.27
2019-05-29T01:05:09.819Z,1001.24
2019-05-29T01:06:09.880Z,1001.28
2019-05-29T01:07:10.187Z,1001.29
2019-05-29T01:08:10.318Z,1001.35
2019-05-29T01:09:10.301Z,1001.34
2019-05-29T01:10:09.038Z,1001.36
2019-05-29T01:11:09.077Z,1001.35
2019-05-29T01:12:09.021Z,1001.28
2019-05-29T01:13:09.001Z,1001.35
2019-05-29T01:14:09.021Z,1001.35
2019-05-29T01:15:08.982Z,1001.37
2019-05-29T01:16:08.974Z,1001.31
2019-05-29T01:17:08.961Z,1001.38
2019-05-29T01:18:08.962Z,1001.38
2019-05-29T01:19:08.973Z,1001.34
2019-05-29T01:20:08.986Z,1001.39
2019-05-29T01:21:08.921Z,1001.40
2019-05-29T01:22:08.910Z,1001.42
2019-05-29T01:23:08.898Z,1001.40
2019-05-29T01:24:08.920Z,1001.45
2019-05-29T01:25:08.881Z,1001.39
2019-05-29T01:26:08.866Z,1001.43
2019-05-29T01:27:08.859Z,1001.45
2019-05-29T01:28:08.853Z,1001.49
2019-05-29T01:29:08.857Z,1001.54
2019-05-29T01:30:08.824Z,1001.49
2019-05-29T01:31:08.814Z,1001.54
2019-05-29T01:32:08.804Z,1001.56
2019-05-29T01:33:08.795Z,1001.55
2019-05-29T01:34:08.817Z,1001.59
2019-05-29T01:35:08.775Z,1001.67
2019-05-29T01:36:08.765Z,1001.68
2019-05-29T01:37:08.759Z,1001.67
2019-05-29T01:38:08.743Z,1001.77
2019-05-29T01:39:08.817Z,1001.72
2019-05-29T01:40:19.404Z,1001.67
2019-05-29T01:41:09.710Z,1001.70
2019-05-29T01:42:08.698Z,1001.69
2019-05-29T01:43:08.689Z,1001.71
2019-05-29T01:44:08.708Z,1001.70
2019-05-29T01:45:08.896Z,1001.72
2019-05-29T01:46:08.654Z,1001.76
2019-05-29T01:47:08.642Z,1001.78
2019-05-29T01:48:08.636Z,1001.75
2019-05-29T01:49:08.651Z,1001.76
2019-05-29T01:50:08.621Z,1001.80
2019-05-29T01:51:08.605Z,1001.76
2019-05-29T01:52:08.597Z,1001.76
2019-05-29T01:53:08.591Z,1001.78
2019-05-29T01:54:08.623Z,1001.78
2019-05-29T01:55:08.565Z,1001.79
2019-05-29T01:56:08.550Z,1001.83
2019-05-29T01:57:08.546Z,1001.84
2019-05-29T01:58:08.532Z,1001.83
2019-05-29T01:59:08.551Z,1001.77
2019-05-29T02:00:08.507Z,1001.77
2019-05-29T02:01:08.498Z,1001.82
2019-05-29T02:02:08.487Z,1001.83
2019-05-29T02:03:08.475Z,1001.83
2019-05-29T02:04:08.496Z,1001.89
2019-05-29T02:05:08.461Z,1001.81
2019-05-29T02:06:08.446Z,1001.84
2019-05-29T02:07:08.438Z,1001.95
2019-05-29T02:08:08.428Z,1001.88
2019-05-29T02:09:08.439Z,1001.86
2019-05-29T02:10:08.416Z,1001.92
2019-05-29T02:11:08.395Z,1001.89
2019-05-29T02:12:08.383Z,1001.91
2019-05-29T02:13:08.375Z,1001.93
2019-05-29T02:14:08.394Z,1001.94
2019-05-29T02:15:23.046Z,1001.98
2019-05-29T02:16:09.348Z,1001.99
2019-05-29T02:17:08.338Z,1002.03
2019-05-29T02:18:08.325Z,1002.05
2019-05-29T02:19:08.342Z,1002.00
2019-05-29T02:20:08.303Z,1002.05
2019-05-29T02:21:08.385Z,1002.02
2019-05-29T02:22:08.274Z,1002.00
2019-05-29T02:23:08.265Z,1002.06
2019-05-29T02:24:08.286Z,1002.13
2019-05-29T02:25:08.262Z,1002.13
2019-05-29T02:26:08.235Z,1002.15
2019-05-29T02:27:08.226Z,1002.14
2019-05-29T02:28:08.217Z,1002.14
2019-05-29T02:29:08.229Z,1002.10
2019-05-29T02:30:08.369Z,1002.15
2019-05-29T02:31:08.208Z,1002.20
2019-05-29T02:32:08.195Z,1002.20
2019-05-29T02:33:08.162Z,1002.17
2019-05-29T02:34:08.183Z,1002.21
2019-05-29T02:35:08.139Z,1002.17
2019-05-29T02:36:08.129Z,1002.17
2019-05-29T02:37:08.129Z,1002.13
2019-05-29T02:38:08.111Z,1002.24
2019-05-29T02:39:08.168Z,1002.20
2019-05-29T02:40:08.087Z,1002.20
2019-05-29T02:41:08.075Z,1002.18
2019-05-29T02:42:08.072Z,1002.25
2019-05-29T02:43:08.058Z,1002.21
2019-05-29T02:44:08.076Z,1002.21
2019-05-29T02:45:08.041Z,1002.23
2019-05-29T02:46:08.024Z,1002.19
2019-05-29T02:47:08.015Z,1002.24
2019-05-29T02:48:08.009Z,1002.17
2019-05-29T02:49:08.024Z,1002.24
2019-05-29T02:50:07.988Z,1002.24
2019-05-29T02:51:12.097Z,1002.29
2019-05-29T02:52:07.965Z,1002.20
2019-05-29T02:53:07.953Z,1002.26
2019-05-29T02:54:07.968Z,1002.24
2019-05-29T02:55:07.933Z,1002.24
2019-05-29T02:56:07.924Z,1002.24
2019-05-29T02:57:07.924Z,1002.29
2019-05-29T02:58:07.908Z,1002.29
2019-05-29T02:59:07.909Z,1002.39
2019-05-29T03:00:07.884Z,1002.34
2019-05-29T03:01:07.866Z,1002.34
2019-05-29T03:02:07.864Z,1002.42
2019-05-29T03:03:07.852Z,1002.28
2019-05-29T03:04:07.865Z,1002.34
2019-05-29T03:05:07.848Z,1002.38
2019-05-29T03:06:07.892Z,1002.36
2019-05-29T03:07:07.806Z,1002.34
2019-05-29T03:08:07.791Z,1002.34
2019-05-29T03:09:07.823Z,1002.33
2019-05-29T03:10:07.775Z,1002.47
2019-05-29T03:11:07.763Z,1002.45
2019-05-29T03:12:07.750Z,1002.41
2019-05-29T03:13:07.740Z,1002.46
2019-05-29T03:14:07.732Z,1002.51
2019-05-29T03:15:07.753Z,1002.46
2019-05-29T03:16:12.217Z,1002.50
2019-05-29T03:17:08.696Z,1002.49
2019-05-29T03:18:07.693Z,1002.51
2019-05-29T03:19:07.680Z,1002.49
2019-05-29T03:20:07.687Z,1002.53
2019-05-29T03:21:07.659Z,1002.60
2019-05-29T03:22:07.647Z,1002.64
2019-05-29T03:23:07.653Z,1002.60
2019-05-29T03:24:07.621Z,1002.55
2019-05-29T03:25:07.635Z,1002.53
2019-05-29T03:26:07.605Z,1002.55
2019-05-29T03:27:07.597Z,1002.65
2019-05-29T03:28:07.595Z,1002.61
2019-05-29T03:29:07.574Z,1002.69
2019-05-29T03:30:07.604Z,1002.61
2019-05-29T03:31:07.551Z,1002.64
2019-05-29T03:32:13.831Z,1002.70
2019-05-29T03:33:08.527Z,1002.68
2019-05-29T03:34:07.523Z,1002.72
2019-05-29T03:35:07.535Z,1002.71
2019-05-29T03:36:07.502Z,1002.77
2019-05-29T03:37:07.485Z,1002.71
2019-05-29T03:38:07.478Z,1002.78
2019-05-29T03:39:07.468Z,1002.73
2019-05-29T03:40:07.484Z,1002.72
2019-05-29T03:41:07.451Z,1002.80
2019-05-29T03:42:07.435Z,1002.76
2019-05-29T03:43:07.423Z,1002.80
2019-05-29T03:44:10.222Z,1002.76
2019-05-29T03:45:07.430Z,1002.66
2019-05-29T03:46:07.397Z,1002.75
2019-05-29T03:47:07.383Z,1002.78
2019-05-29T03:48:07.373Z,1002.72
2019-05-29T03:49:07.359Z,1002.85
2019-05-29T03:50:07.372Z,1002.78
2019-05-29T03:51:07.338Z,1002.84
2019-05-29T03:52:07.341Z,1002.88
2019-05-29T03:53:07.316Z,1002.89
2019-05-29T03:54:07.312Z,1002.86
2019-05-29T03:55:07.323Z,1002.89
2019-05-29T03:56:07.289Z,1002.96
2019-05-29T03:57:07.277Z,1002.94
2019-05-29T03:58:07.277Z,1002.93
2019-05-29T03:59:07.253Z,1002.92
2019-05-29T04:00:07.271Z,1002.94
2019-05-29T04:01:07.360Z,1002.92
2019-05-29T04:02:07.223Z,1002.98
2019-05-29T04:03:07.220Z,1002.93
2019-05-29T04:04:07.206Z,1002.98
2019-05-29T04:05:07.215Z,1003.09
2019-05-29T04:06:07.185Z,1003.03
2019-05-29T04:07:07.170Z,1003.05
2019-05-29T04:08:07.162Z,1003.03
2019-05-29T04:09:07.151Z,1003.01
2019-05-29T04:10:07.189Z,1003.01
2019-05-29T04:11:07.126Z,1003.09
2019-05-29T04:12:07.127Z,1003.13
2019-05-29T04:13:07.117Z,1003.05
2019-05-29T04:14:07.106Z,1003.16
2019-05-29T04:15:07.121Z,1003.16
2019-05-29T04:16:07.071Z,1003.10
2019-05-29T04:17:07.074Z,1003.19
2019-05-29T04:18:07.058Z,1003.15
2019-05-29T04:19:07.040Z,1003.19
2019-05-29T04:20:07.059Z,1003.13
2019-05-29T04:21:07.041Z,1003.11
2019-05-29T04:22:07.010Z,1003.16
2019-05-29T04:23:07.000Z,1003.15
2019-05-29T04:24:07.001Z,1003.22
2019-05-29T04:25:07.007Z,1003.16
2019-05-29T04:26:06.970Z,1003.20
2019-05-29T04:27:06.956Z,1003.24
2019-05-29T04:28:06.952Z,1003.17
2019-05-29T04:29:06.932Z,1003.16
2019-05-29T04:30:06.950Z,1003.28
2019-05-29T04:31:06.915Z,1003.26
2019-05-29T04:32:06.900Z,1003.30
2019-05-29T04:33:06.897Z,1003.33
2019-05-29T04:34:06.881Z,1003.30
2019-05-29T04:35:06.904Z,1003.36
2019-05-29T04:36:06.866Z,1003.43
2019-05-29T04:37:07.540Z,1003.40
2019-05-29T04:38:06.840Z,1003.45
2019-05-29T04:39:06.826Z,1003.48
2019-05-29T04:40:06.840Z,1003.48
2019-05-29T04:41:06.808Z,1003.55
2019-05-29T04:42:06.795Z,1003.52
2019-05-29T04:43:06.785Z,1003.52
2019-05-29T04:44:06.775Z,1003.60
2019-05-29T04:45:06.789Z,1003.55
2019-05-29T04:46:06.759Z,1003.57
2019-05-29T04:47:11.091Z,1003.57
2019-05-29T04:48:07.728Z,1003.55
2019-05-29T04:49:06.725Z,1003.57
2019-05-29T04:50:06.740Z,1003.64
2019-05-29T04:51:06.697Z,1003.64
2019-05-29T04:52:06.694Z,1003.63
2019-05-29T04:53:06.678Z,1003.67
2019-05-29T04:54:06.667Z,1003.73
2019-05-29T04:55:06.679Z,1003.66
2019-05-29T04:56:06.684Z,1003.77
2019-05-29T04:57:06.664Z,1003.73
2019-05-29T04:58:06.631Z,1003.77
2019-05-29T04:59:06.620Z,1003.78
2019-05-29T05:00:06.631Z,1003.69
2019-05-29T05:01:06.592Z,1003.69
2019-05-29T05:02:06.580Z,1003.74
2019-05-29T05:03:06.571Z,1003.77
2019-05-29T05:04:06.561Z,1003.75
2019-05-29T05:05:06.590Z,1003.86
2019-05-29T05:06:06.549Z,1003.87
2019-05-29T05:07:06.526Z,1003.85
2019-05-29T05:08:06.519Z,1003.90
2019-05-29T05:09:06.506Z,1003.89
2019-05-29T05:10:06.522Z,1003.99
2019-05-29T05:11:06.487Z,1003.87
2019-05-29T05:12:06.497Z,1003.99
2019-05-29T05:13:06.470Z,1004.03
2019-05-29T05:14:06.451Z,1003.98
2019-05-29T05:15:06.487Z,1004.04
2019-05-29T05:16:06.444Z,1004.03
2019-05-29T05:17:06.420Z,1004.05
2019-05-29T05:18:06.417Z,1003.99
2019-05-29T05:19:06.404Z,1004.02
2019-05-29T05:20:06.457Z,1003.98
2019-05-29T05:21:06.378Z,1004.00
2019-05-29T05:22:06.365Z,1004.09
2019-05-29T05:23:06.357Z,1004.09
2019-05-29T05:24:06.353Z,1004.10
2019-05-29T05:25:06.384Z,1004.07
2019-05-29T05:26:06.325Z,1004.06
2019-05-29T05:27:06.314Z,1004.08
2019-05-29T05:28:06.302Z,1004.09
2019-05-29T05:29:06.295Z,1004.12
2019-05-29T05:30:08.920Z,1004.12
2019-05-29T05:31:06.301Z,1004.12
2019-05-29T05:32:06.259Z,1004.09
2019-05-29T05:33:06.253Z,1004.11
2019-05-29T05:34:06.244Z,1004.16
2019-05-29T05:35:06.228Z,1004.20
2019-05-29T05:36:06.246Z,1004.17
2019-05-29T05:37:06.220Z,1004.20
2019-05-29T05:38:06.196Z,1004.16
2019-05-29T05:39:06.188Z,1004.24
2019-05-29T05:40:06.177Z,1004.25
2019-05-29T05:41:06.185Z,1004.21
2019-05-29T05:42:06.156Z,1004.18
2019-05-29T05:43:06.143Z,1004.19
2019-05-29T05:44:06.146Z,1004.29
2019-05-29T05:45:06.120Z,1004.24
2019-05-29T05:46:06.135Z,1004.30
2019-05-29T05:47:06.103Z,1004.30
2019-05-29T05:48:06.099Z,1004.35
2019-05-29T05:49:06.077Z,1004.32
2019-05-29T05:50:06.066Z,1004.40
2019-05-29T05:51:06.085Z,1004.36
2019-05-29T05:52:06.048Z,1004.41
2019-05-29T05:53:06.041Z,1004.46
2019-05-29T05:54:06.023Z,1004.43
2019-05-29T05:55:06.014Z,1004.47
2019-05-29T05:56:06.032Z,1004.41
2019-05-29T05:57:05.996Z,1004.39
2019-05-29T05:58:05.984Z,1004.45
2019-05-29T05:59:05.975Z,1004.38
2019-05-29T06:00:05.960Z,1004.44
2019-05-29T06:01:05.979Z,1004.47
2019-05-29T06:02:05.942Z,1004.46
2019-05-29T06:03:05.931Z,1004.46
2019-05-29T06:04:05.924Z,1004.49
2019-05-29T06:05:05.906Z,1004.53
2019-05-29T06:06:05.922Z,1004.55
2019-05-29T06:07:05.901Z,1004.53
2019-05-29T06:08:05.874Z,1004.52
2019-05-29T06:09:05.867Z,1004.56
2019-05-29T06:10:05.852Z,1004.63
2019-05-29T06:11:05.867Z,1004.55
2019-05-29T06:12:05.830Z,1004.59
2019-05-29T06:13:05.823Z,1004.64
2019-05-29T06:14:05.814Z,1004.65
2019-05-29T06:15:05.801Z,1004.63
2019-05-29T06:16:05.852Z,1004.65
2019-05-29T06:17:05.780Z,1004.59
2019-05-29T06:18:20.650Z,1004.64
2019-05-29T06:19:06.763Z,1004.63
2019-05-29T06:20:05.746Z,1004.63
2019-05-29T06:21:05.766Z,1004.64
2019-05-29T06:22:05.735Z,1004.64
2019-05-29T06:23:05.730Z,1004.60
2019-05-29T06:24:05.726Z,1004.53
2019-05-29T06:25:05.701Z,1004.59
2019-05-29T06:26:05.708Z,1004.59
2019-05-29T06:27:05.676Z,1004.68
2019-05-29T06:28:05.669Z,1004.62
2019-05-29T06:29:05.661Z,1004.63
2019-05-29T06:30:05.643Z,1004.63
2019-05-29T06:31:05.683Z,1004.71
2019-05-29T06:32:05.650Z,1004.63
2019-05-29T06:33:05.614Z,1004.68
2019-05-29T06:34:05.604Z,1004.66
2019-05-29T06:35:05.592Z,1004.65
2019-05-29T06:36:05.615Z,1004.72
2019-05-29T06:37:05.575Z,1004.61
2019-05-29T06:38:05.559Z,1004.73
2019-05-29T06:39:05.548Z,1004.69
2019-05-29T06:40:05.535Z,1004.73
2019-05-29T06:41:05.547Z,1004.73
2019-05-29T06:42:05.516Z,1004.70
2019-05-29T06:43:05.504Z,1004.79
2019-05-29T06:44:05.490Z,1004.82
2019-05-29T06:45:05.739Z,1004.78
2019-05-29T06:46:05.495Z,1004.81
2019-05-29T06:47:05.473Z,1004.79
2019-05-29T06:48:05.458Z,1004.88
2019-05-29T06:49:05.455Z,1004.79
2019-05-29T06:50:05.437Z,1004.86
2019-05-29T06:51:05.442Z,1004.78
2019-05-29T06:52:08.998Z,1004.88
2019-05-29T06:53:05.398Z,1004.88
2019-05-29T06:54:05.382Z,1004.89
2019-05-29T06:55:05.375Z,1004.89
2019-05-29T06:56:05.424Z,1004.91
2019-05-29T06:57:05.349Z,1004.96
2019-05-29T06:58:05.344Z,1004.96
2019-05-29T06:59:05.336Z,1004.99
2019-05-29T07:00:05.328Z,1005.02
2019-05-29T07:01:05.339Z,1005.08
2019-05-29T07:02:05.308Z,1005.06
2019-05-29T07:03:05.291Z,1005.12
2019-05-29T07:04:11.922Z,1005.09
2019-05-29T07:05:06.267Z,1005.10
2019-05-29T07:06:05.327Z,1005.21
2019-05-29T07:07:05.246Z,1005.18
2019-05-29T07:08:18.651Z,1005.15
2019-05-29T07:09:06.222Z,1005.18
2019-05-29T07:10:05.217Z,1005.22
2019-05-29T07:11:05.213Z,1005.19
2019-05-29T07:12:05.218Z,1005.22
2019-05-29T07:13:05.183Z,1005.26
2019-05-29T07:14:05.171Z,1005.27
2019-05-29T07:15:05.161Z,1005.25
2019-05-29T07:16:05.157Z,1005.32
2019-05-29T07:17:05.168Z,1005.20
2019-05-29T07:18:05.132Z,1005.27
2019-05-29T07:20:06.109Z,1005.29
2019-05-29T07:21:05.105Z,1005.41
2019-05-29T07:22:05.115Z,1005.41
2019-05-29T07:23:05.074Z,1005.48
2019-05-29T07:24:05.066Z,1005.40
2019-05-29T07:25:05.054Z,1005.42
2019-05-29T07:26:05.045Z,1005.43
2019-05-29T07:27:05.069Z,1005.49
2019-05-29T07:28:05.030Z,1005.57
2019-05-29T07:29:08.417Z,1005.46
2019-05-29T07:30:05.003Z,1005.54
2019-05-29T07:31:04.994Z,1005.55
2019-05-29T07:32:05.004Z,1005.58
2019-05-29T07:33:04.976Z,1005.52
2019-05-29T07:34:04.961Z,1005.58
2019-05-29T07:35:04.991Z,1005.55
2019-05-29T07:36:04.944Z,1005.57
2019-05-29T07:37:04.954Z,1005.60
2019-05-29T07:38:04.928Z,1005.58
2019-05-29T07:39:04.916Z,1005.60
2019-05-29T07:40:04.899Z,1005.60
2019-05-29T07:41:04.882Z,1005.60
2019-05-29T07:42:04.897Z,1005.66
2019-05-29T07:43:04.866Z,1005.64
2019-05-29T07:44:04.854Z,1005.75
2019-05-29T07:45:04.844Z,1005.72
2019-05-29T07:46:04.829Z,1005.64
2019-05-29T07:47:04.851Z,1005.70
2019-05-29T07:48:04.810Z,1005.68
2019-05-29T07:49:04.900Z,1005.69
2019-05-29T07:50:04.796Z,1005.70
2019-05-29T07:51:07.283Z,1005.67
2019-05-29T07:52:05.797Z,1005.70
2019-05-29T07:53:04.756Z,1005.74
2019-05-29T07:54:04.749Z,1005.77
2019-05-29T07:55:04.738Z,1005.71
2019-05-29T07:56:04.724Z,1005.73
2019-05-29T07:57:04.742Z,1005.51
2019-05-29T07:58:04.703Z,1005.55
2019-05-29T07:59:04.693Z,1005.55
2019-05-29T08:00:04.681Z,1005.57
2019-05-29T08:01:12.890Z,1005.75
2019-05-29T08:02:05.686Z,1005.82
2019-05-29T08:03:04.650Z,1005.86
2019-05-29T08:04:04.660Z,1005.84
2019-05-29T08:05:04.630Z,1005.88
2019-05-29T08:06:04.679Z,1005.89
2019-05-29T08:07:04.631Z,1005.96
2019-05-29T08:08:04.601Z,1005.93
2019-05-29T08:09:04.607Z,1005.98
2019-05-29T08:10:04.577Z,1006.01
2019-05-29T08:11:04.564Z,1005.99
2019-05-29T08:12:04.584Z,1005.99
2019-05-29T08:13:04.550Z,1005.90
2019-05-29T08:14:04.536Z,1006.00
2019-05-29T08:15:04.528Z,1006.00
2019-05-29T08:16:04.516Z,1006.01
2019-05-29T08:17:04.528Z,1005.70
2019-05-29T08:18:04.497Z,1006.05
2019-05-29T08:19:07.885Z,1006.06
2019-05-29T08:20:07.614Z,1006.09
2019-05-29T08:21:04.463Z,1006.07
2019-05-29T08:22:04.479Z,1006.02
2019-05-29T08:23:04.437Z,1006.11
2019-05-29T08:24:04.429Z,1006.09
2019-05-29T08:25:04.426Z,1006.12
2019-05-29T08:26:04.406Z,1006.05
2019-05-29T08:27:04.424Z,1006.06
2019-05-29T08:28:04.394Z,1006.10
2019-05-29T08:29:04.378Z,1006.09
2019-05-29T08:30:04.369Z,1006.19
2019-05-29T08:31:04.367Z,1006.23
2019-05-29T08:32:04.375Z,1006.16
2019-05-29T08:33:04.338Z,1006.06
2019-05-29T08:34:04.329Z,1006.21
2019-05-29T08:35:04.316Z,1005.95
2019-05-29T08:36:04.322Z,1005.97
2019-05-29T08:37:07.270Z,1006.26
2019-05-29T08:38:04.287Z,1006.28
2019-05-29T08:39:04.331Z,1006.11
2019-05-29T08:40:04.276Z,1006.30
2019-05-29T08:41:05.979Z,1006.23
2019-05-29T08:42:22.083Z,1006.37
2019-05-29T08:43:05.231Z,1006.31
2019-05-29T08:44:04.224Z,1006.33
2019-05-29T08:45:04.225Z,1006.41
2019-05-29T08:46:04.208Z,1006.38
2019-05-29T08:47:10.616Z,1006.36
2019-05-29T08:48:05.218Z,1006.34
2019-05-29T08:49:04.180Z,1006.42
2019-05-29T08:50:17.475Z,1006.33
2019-05-29T08:51:05.286Z,1006.30
2019-05-29T08:52:11.805Z,1006.27
2019-05-29T08:53:05.140Z,1006.27
2019-05-29T08:54:22.668Z,1006.21
2019-05-29T08:55:05.109Z,1006.18
2019-05-29T08:56:04.103Z,1006.25
2019-05-29T08:57:04.145Z,1006.22
2019-05-29T08:58:04.081Z,1006.21
2019-05-29T08:59:04.071Z,1006.24
2019-05-29T09:00:04.065Z,1006.27
2019-05-29T09:01:04.056Z,1006.26
2019-05-29T09:02:04.076Z,1006.26
2019-05-29T09:03:04.030Z,1006.25
2019-05-29T09:04:04.028Z,1006.26
2019-05-29T09:05:04.109Z,1006.24
2019-05-29T09:06:08.915Z,1006.32
2019-05-29T09:07:05.041Z,1006.30
2019-05-29T09:08:03.979Z,1006.28
2019-05-29T09:09:03.974Z,1006.36
2019-05-29T09:10:03.973Z,1006.30
2019-05-29T09:11:03.952Z,1006.39
2019-05-29T09:12:03.959Z,1006.34
2019-05-29T09:13:05.198Z,1006.38
2019-05-29T09:14:03.919Z,1006.36
2019-05-29T09:15:03.931Z,1006.39
2019-05-29T09:16:03.904Z,1006.41
2019-05-29T09:17:03.893Z,1006.46
2019-05-29T09:18:03.910Z,1006.32
2019-05-29T09:19:03.880Z,1006.44
2019-05-29T09:20:03.861Z,1006.44
2019-05-29T09:21:04.563Z,1006.38
2019-05-29T09:22:03.841Z,1006.45
2019-05-29T09:23:03.865Z,1006.47
2019-05-29T09:24:03.840Z,1006.47
2019-05-29T09:25:03.813Z,1006.46
2019-05-29T09:26:14.030Z,1006.43
2019-05-29T09:27:04.791Z,1006.42
2019-05-29T09:28:03.815Z,1006.47
2019-05-29T09:29:03.770Z,1006.44
2019-05-29T09:30:03.768Z,1006.45
2019-05-29T09:31:03.751Z,1006.43
2019-05-29T09:32:03.744Z,1006.38
2019-05-29T09:33:03.779Z,1006.41
2019-05-29T09:34:03.767Z,1006.37
2019-05-29T09:35:03.710Z,1006.40
2019-05-29T09:36:03.725Z,1006.39
2019-05-29T09:37:03.826Z,1006.43
2019-05-29T09:38:03.710Z,1006.43
2019-05-29T09:39:03.677Z,1006.46
2019-05-29T09:40:03.662Z,1006.39
2019-05-29T09:41:03.670Z,1006.48
2019-05-29T09:42:03.649Z,1006.52
2019-05-29T09:43:03.657Z,1006.53
2019-05-29T09:44:03.627Z,1006.50
2019-05-29T09:45:03.616Z,1006.49
2019-05-29T09:46:03.607Z,1006.48
2019-05-29T09:47:03.611Z,1006.55
2019-05-29T09:48:03.625Z,1006.62
2019-05-29T09:49:03.577Z,1006.58
2019-05-29T09:50:03.571Z,1006.51
2019-05-29T09:51:20.230Z,1006.57
2019-05-29T09:52:04.546Z,1006.59
2019-05-29T09:53:04.195Z,1006.56
2019-05-29T09:54:03.715Z,1006.52
2019-05-29T09:55:03.523Z,1006.56
2019-05-29T09:56:03.507Z,1006.33
2019-05-29T09:57:03.494Z,1006.26
2019-05-29T09:58:03.520Z,1006.47
2019-05-29T09:59:03.925Z,1006.63
2019-05-29T10:00:04.212Z,1006.62
2019-05-29T10:01:18.399Z,1006.59
2019-05-29T10:02:07.556Z,1006.60
2019-05-29T10:03:03.912Z,1006.66
2019-05-29T10:04:06.066Z,1006.67
2019-05-29T10:05:04.164Z,1006.64
2019-05-29T10:06:04.301Z,1006.68
2019-05-29T10:07:04.865Z,1006.66
2019-05-29T10:08:04.419Z,1006.62
2019-05-29T10:09:03.783Z,1006.60
2019-05-29T10:10:05.077Z,1006.62
2019-05-29T10:11:08.473Z,1006.57
2019-05-29T10:12:06.804Z,1006.54
2019-05-29T10:13:04.466Z,1006.64
2019-05-29T10:14:04.971Z,1006.62
2019-05-29T10:15:04.412Z,1006.59
2019-05-29T10:16:04.612Z,1006.27
2019-05-29T10:17:11.118Z,1006.69
2019-05-29T10:18:08.505Z,1006.63
2019-05-29T10:19:04.976Z,1006.62
2019-05-29T10:20:03.374Z,1006.61
2019-05-29T10:21:03.293Z,1006.65
2019-05-29T10:22:04.010Z,1006.37
2019-05-29T10:23:03.269Z,1006.62
2019-05-29T10:24:04.183Z,1006.61
2019-05-29T10:25:03.700Z,1006.64
2019-05-29T10:26:04.651Z,1006.65
2019-05-29T10:27:04.865Z,1006.66
2019-05-29T10:28:05.950Z,1006.71
2019-05-29T10:29:08.674Z,1006.66
2019-05-29T10:30:04.178Z,1006.65
2019-05-29T10:31:04.018Z,1006.59
2019-05-29T10:32:03.164Z,1006.57
2019-05-29T10:33:03.175Z,1006.59
2019-05-29T10:34:03.135Z,1006.64
2019-05-29T10:35:03.122Z,1006.77
2019-05-29T10:36:04.195Z,1006.67
2019-05-29T10:37:03.112Z,1006.72
2019-05-29T10:38:03.124Z,1006.74
2019-05-29T10:39:03.105Z,1006.67
2019-05-29T10:40:03.080Z,1006.76
2019-05-29T10:41:06.656Z,1006.71
2019-05-29T10:42:03.059Z,1006.73
2019-05-29T10:43:03.100Z,1006.74
2019-05-29T10:44:03.044Z,1006.66
2019-05-29T10:45:03.033Z,1006.65
2019-05-29T10:46:03.022Z,1006.66
2019-05-29T10:47:03.011Z,1006.67
2019-05-29T10:48:03.028Z,1006.63
2019-05-29T10:49:04.746Z,1006.68
2019-05-29T10:50:03.017Z,1006.71
2019-05-29T10:51:02.974Z,1006.60
2019-05-29T10:52:14.486Z,1006.68
2019-05-29T10:53:03.979Z,1006.69
2019-05-29T10:54:02.947Z,1006.67
2019-05-29T10:55:02.941Z,1006.70
2019-05-29T10:56:02.931Z,1006.68
2019-05-29T10:57:02.916Z,1006.67
2019-05-29T10:58:02.939Z,1006.74
2019-05-29T10:59:02.905Z,1006.67
2019-05-29T11:00:02.893Z,1006.69
2019-05-29T11:01:02.888Z,1006.63
2019-05-29T11:02:02.911Z,1006.66
2019-05-29T11:03:02.906Z,1006.66
2019-05-29T11:04:02.856Z,1006.62
2019-05-29T11:05:02.852Z,1006.67
2019-05-29T11:06:02.844Z,1006.62
2019-05-29T11:07:02.848Z,1006.65
2019-05-29T11:08:02.846Z,1006.65
2019-05-29T11:09:02.839Z,1006.68
2019-05-29T11:10:02.803Z,1006.68
2019-05-29T11:11:02.799Z,1006.65
2019-05-29T11:12:02.788Z,1006.64
2019-05-29T11:13:02.772Z,1006.63
2019-05-29T11:14:02.788Z,1006.68
2019-05-29T11:15:19.880Z,1006.64
2019-05-29T11:16:03.748Z,1006.68
2019-05-29T11:17:02.746Z,1006.73
2019-05-29T11:18:02.730Z,1006.71
2019-05-29T11:19:02.747Z,1006.72
2019-05-29T11:20:02.749Z,1006.69
2019-05-29T11:21:02.704Z,1006.67
2019-05-29T11:22:24.821Z,1006.74
2019-05-29T11:23:03.683Z,1006.66
2019-05-29T11:24:02.708Z,1006.68
2019-05-29T11:25:21.021Z,1006.62
2019-05-29T11:26:03.653Z,1006.63
2019-05-29T11:27:02.655Z,1006.68
2019-05-29T11:28:02.638Z,1006.58
2019-05-29T11:29:02.651Z,1006.61
2019-05-29T11:30:02.616Z,1006.63
2019-05-29T11:31:06.297Z,1006.60
2019-05-29T11:32:02.607Z,1006.63
2019-05-29T11:33:02.603Z,1006.60
2019-05-29T11:34:02.607Z,1006.51
2019-05-29T11:35:02.567Z,1006.67
2019-05-29T11:36:12.201Z,1006.64
2019-05-29T11:37:03.555Z,1006.59
2019-05-29T11:38:02.985Z,1006.66
2019-05-29T11:39:05.988Z,1006.61
2019-05-29T11:40:03.341Z,1006.62
2019-05-29T11:41:24.731Z,1006.68
2019-05-29T11:42:03.501Z,1006.66
2019-05-29T11:43:03.243Z,1006.71
2019-05-29T11:44:03.232Z,1006.69
2019-05-29T11:45:03.817Z,1006.51
2019-05-29T11:46:02.471Z,1006.57
2019-05-29T11:47:02.954Z,1006.62
2019-05-29T11:48:04.958Z,1006.70
2019-05-29T11:49:03.600Z,1006.65
2019-05-29T11:50:16.774Z,1006.70
2019-05-29T11:51:03.418Z,1006.62
2019-05-29T11:52:22.587Z,1006.63
2019-05-29T11:53:03.399Z,1006.65
2019-05-29T11:54:02.561Z,1006.61
2019-05-29T11:55:07.050Z,1006.64
2019-05-29T11:56:03.365Z,1006.68
2019-05-29T11:57:03.274Z,1006.69
2019-05-29T11:58:02.350Z,1006.71
2019-05-29T11:59:03.182Z,1006.65
2019-05-29T12:00:16.365Z,1006.65
2019-05-29T12:01:03.327Z,1006.68
2019-05-29T12:02:03.364Z,1006.71
2019-05-29T12:03:02.307Z,1006.68
2019-05-29T12:04:22.966Z,1006.69
2019-05-29T12:05:03.915Z,1006.65
2019-05-29T12:06:03.269Z,1006.63